Terminal Aerodrome Forecast
Issued by NWS

Home | Current Version | Previous Version | Text Only | Print | Product List | Glossary On
Versions: 1 2 3 4 5 6 7 8 9 10 11 12 13 14 15 16 17 18 19 20 21 22 23 24 25 26
000
FTAK31 PAFA 011540 AAB
TAFATA
TAF AMD
PATA 011540Z 0116/0212 24006KT 2SM -RA BR BKN005 OVC010
     FM011900 22010KT 4SM -RA BR SCT005 OVC010
     FM020200 24006KT P6SM -SHRA BKN020 OVC040=

USA.gov is the U.S. government's official web portal to all federal, state and local government web resources and services.